Aeroboteco Virtual Airlines! Uma nuvem a frente.



 INFORMAÇÕES METEOROLÓGICAS
METAR FOR GCXO
ADDS - METARS form results

(1347 UTC 21 September 2019)
Data provider http://aviationweather.gov/metar/data/
 
METAR text: GCXO 211330Z 33011KT 290V010 9999 FEW008 23/16 Q1019 NOSIG
Conditions at: GCXO (TENERIFE/LOS ROD, ES) observed 1330 UTC 21 September 2019
Temperature: 23.0°C (73°F)
Dewpoint: 16.0°C (61°F) [RH = 65%]
Pressure (altimeter): 30.09 inches Hg (1019.0 mb)
Winds: from the NNW (330 degrees) at 13 MPH (11 knots; 5.7 m/s)
Visibility: 6 or more miles (10+ km)
Ceiling: at least 12,000 feet AGL
Clouds: few clouds at 800 feet AGL
Weather: no significant weather observed at this time

METAR text: GCXO 211300Z 33011KT 290V020 9999 FEW010 24/15 Q1019 NOSIG
Conditions at: GCXO (TENERIFE/LOS ROD, ES) observed 1300 UTC 21 September 2019
Temperature: 24.0°C (75°F)
Dewpoint: 15.0°C (59°F) [RH = 57%]
Pressure (altimeter): 30.09 inches Hg (1019.0 mb)
Winds: from the NNW (330 degrees) at 13 MPH (11 knots; 5.7 m/s)
Visibility: 6 or more miles (10+ km)
Ceiling: at least 12,000 feet AGL
Clouds: few clouds at 1000 feet AGL
Weather: no significant weather observed at this time

Forecast for: GCXO (TENERIFE/LOS ROD, ES)
Text: TAF GCXO 210800Z 2109/2209 30009KT 9999 SCT012 TX25/2113Z TN16/2205Z
Forecast period: 0900 UTC 21 September 2019 to 0900 UTC 22 September 2019
Forecast type: FROM: standard forecast or significant change
Winds: from the WNW (300 degrees) at 10 MPH (9 knots; 4.6 m/s)
Visibility: 6 or more miles 10+ km)
Ceiling: at least 12,000 feet AGL
Clouds: scattered clouds at 1200 feet AGL
Weather: no significant weather forecast for this period
Text: TEMPO 2118/2209 3000 BCFG BKN005
Forecast period: 1800 UTC 21 September 2019 to 0900 UTC 22 September 2019
Forecast type: TEMPORARY: The following changes expected for less than half the time period
Visibility: 1.86 miles (2.99 km)
Ceiling: 500 feet AGL
Clouds: broken clouds at 500 feet AGL
Weather: BCFG  (patches of fog)

 MAPA DO AEROPORTO

 INFORMAÇÕES DA PISTA
Pista 12 Tamanho da pista 11155 ft Largura da pista 148 ft
Elevação da pista 2060 ft Ranhura da pista 0 ft Proa da pista 111
Pista 30 Tamanho da pista 11155 ft Largura da pista 148 ft
Elevação da pista 2002 ft Ranhura da pista 0 ft Proa da pista 291

 FREQUÊNCIAS DO AEROPORTO
Tipo APP Nome APP Frequência 119.7 MHZ
Tipo ATIS Nome ATIS Frequência 118.575 MHZ
Tipo GND Nome GND Frequência 121.7 MHZ
Tipo TWR Nome TWR Frequência 118.7 MHZ

 AUXÍLIOS DE NAVEGAÇÃO PRÓXIMOS AO AEROPORTO
Tipo VOR-DME Nome Tenerife Norte Frequência 117700 KHZ
Tipo NDB Nome Tenerife Norte Frequência 410 KHZ